Time;durP1;ratioP1;P1;durP2;ratioP2;P2;SDS_P1;SDS_P2;PMS_P1;PMS_P2;Temp;Humidity;BMP_temperature;BMP_pressure;BME280_temperature;BME280_humidity;BME280_pressure;Samples;Min_cycle;Max_cycle;Signal;HPM_P1;HPM_P2
2023/03/01 00:02:19;;;;;;;9.63;7.90;;;;;;;;;;5027371;28;20779;-69
2023/03/01 00:04:45;;;;;;;12.80;8.40;;;;;;;;;;5033188;28;20442;-69
2023/03/01 00:07:11;;;;;;;14.70;9.40;;;;;;;;;;5036435;28;20287;-69
2023/03/01 00:09:38;;;;;;;11.47;8.30;;;;;;;;;;5036098;28;20414;-69
2023/03/01 00:12:04;;;;;;;10.73;8.80;;;;;;;;;;5034548;28;20423;-69
2023/03/01 00:14:30;;;;;;;13.27;9.47;;;;;;;;;;5032805;28;20496;-69
2023/03/01 00:16:56;;;;;;;10.73;8.37;;;;;;;;;;5027118;28;20426;-69
2023/03/01 00:19:22;;;;;;;13.83;9.07;;;;;;;;;;5025779;28;20180;-70
2023/03/01 00:21:48;;;;;;;11.90;9.33;;;;;;;;;;5024949;28;20251;-70
2023/03/01 00:24:14;;;;;;;9.40;8.50;;;;;;;;;;5027282;28;20180;-69
2023/03/01 00:26:40;;;;;;;10.97;8.87;;;;;;;;;;5033232;28;20411;-69
2023/03/01 00:29:06;;;;;;;11.27;8.53;;;;;;;;;;5033986;28;20420;-70
2023/03/01 00:31:33;;;;;;;12.73;8.80;;;;;;;;;;5033440;28;20494;-69
2023/03/01 00:34:00;;;;;;;11.10;9.13;;;;;;;;;;5032958;28;20188;-69
2023/03/01 00:36:27;;;;;;;10.40;8.87;;;;;;;;;;5032788;28;20418;-69
2023/03/01 00:38:53;;;;;;;12.27;8.23;;;;;;;;;;5031810;28;20465;-69
2023/03/01 00:41:22;;;;;;;12.03;8.63;;;;;;;;;;5031915;28;20421;-69
2023/03/01 00:43:48;;;;;;;11.77;8.70;;;;;;;;;;5033063;28;20407;-70
2023/03/01 00:46:16;;;;;;;11.00;8.27;;;;;;;;;;5032925;28;20490;-69
2023/03/01 00:48:42;;;;;;;11.80;8.70;;;;;;;;;;5031171;28;20250;-69
2023/03/01 00:51:12;;;;;;;11.70;8.93;;;;;;;;;;5032751;28;20425;-69
2023/03/01 00:53:39;;;;;;;12.60;8.83;;;;;;;;;;5016530;23;20503;-70
2023/03/01 00:56:05;;;;;;;11.67;9.27;;;;;;;;;;4997118;28;20408;-69
2023/03/01 00:58:31;;;;;;;11.80;9.27;;;;;;;;;;4997088;28;20481;-71
2023/03/01 01:00:57;;;;;;;12.10;8.77;;;;;;;;;;4997880;28;20408;-71
2023/03/01 01:03:24;;;;;;;10.53;9.00;;;;;;;;;;4998173;28;20893;-71
2023/03/01 01:05:51;;;;;;;15.23;9.20;;;;;;;;;;4997230;28;20231;-70
2023/03/01 01:08:17;;;;;;;13.50;8.70;;;;;;;;;;4997519;28;20462;-70
2023/03/01 01:10:44;;;;;;;10.17;8.33;;;;;;;;;;4996987;28;20416;-72
2023/03/01 01:13:10;;;;;;;10.50;9.13;;;;;;;;;;4997415;28;20205;-71
2023/03/01 01:15:36;;;;;;;11.97;8.97;;;;;;;;;;4996756;28;20422;-70
2023/03/01 01:18:02;;;;;;;9.57;8.47;;;;;;;;;;4996842;28;20180;-70
2023/03/01 01:20:28;;;;;;;11.87;9.20;;;;;;;;;;4995711;28;20925;-71
2023/03/01 01:22:54;;;;;;;13.57;8.90;;;;;;;;;;4995780;28;20941;-70
2023/03/01 01:25:20;;;;;;;14.07;9.03;;;;;;;;;;4996984;28;20502;-70
2023/03/01 01:27:46;;;;;;;13.40;8.63;;;;;;;;;;4997066;28;20218;-71
2023/03/01 01:30:12;;;;;;;14.37;8.73;;;;;;;;;;4995524;28;20232;-71
2023/03/01 01:32:38;;;;;;;12.97;9.50;;;;;;;;;;4995230;28;20200;-70
2023/03/01 01:35:04;;;;;;;11.57;9.00;;;;;;;;;;4995149;28;20957;-70
2023/03/01 01:37:33;;;;;;;11.87;9.47;;;;;;;;;;4995221;28;20346;-71
2023/03/01 01:39:59;;;;;;;12.90;9.80;;;;;;;;;;4996846;28;20419;-71
2023/03/01 01:42:26;;;;;;;10.20;8.93;;;;;;;;;;4995300;28;20439;-72
2023/03/01 01:45:10;;;;;;;10.80;8.83;;;;;;;;;;4996248;28;20480;-71
2023/03/01 01:47:36;;;;;;;11.83;9.20;;;;;;;;;;4994914;28;20465;-70
2023/03/01 01:50:02;;;;;;;12.33;9.37;;;;;;;;;;4994837;28;20420;-71
2023/03/01 01:52:35;;;;;;;12.60;9.50;;;;;;;;;;4994749;28;20227;-71
2023/03/01 01:55:04;;;;;;;12.27;9.83;;;;;;;;;;4995891;28;20519;-71
2023/03/01 01:57:34;;;;;;;13.17;9.77;;;;;;;;;;4994732;28;20436;-71
2023/03/01 02:00:03;;;;;;;14.23;10.07;;;;;;;;;;4994417;28;20416;-71
2023/03/01 02:02:29;;;;;;;10.93;9.73;;;;;;;;;;4995597;28;20538;-70
2023/03/01 02:04:59;;;;;;;11.20;9.47;;;;;;;;;;4995593;28;20442;-71
2023/03/01 02:07:25;;;;;;;12.50;10.27;;;;;;;;;;4994533;28;20459;-70
2023/03/01 02:09:52;;;;;;;16.10;10.03;;;;;;;;;;4994529;28;20507;-72
2023/03/01 02:12:20;;;;;;;14.53;10.37;;;;;;;;;;4995863;28;20439;-70
2023/03/01 02:14:46;;;;;;;12.40;9.67;;;;;;;;;;4994793;28;20420;-71
2023/03/01 02:17:13;;;;;;;13.67;9.73;;;;;;;;;;4994913;28;20499;-70
2023/03/01 02:19:45;;;;;;;15.60;9.87;;;;;;;;;;4996017;28;20890;-71
2023/03/01 02:22:25;;;;;;;11.77;9.50;;;;;;;;;;4996205;28;20513;-70
2023/03/01 02:24:51;;;;;;;11.67;8.93;;;;;;;;;;4995675;28;20420;-69
2023/03/01 02:27:24;;;;;;;11.40;8.83;;;;;;;;;;4994385;28;20469;-70
2023/03/01 02:29:50;;;;;;;13.80;9.73;;;;;;;;;;4996366;28;20495;-70
2023/03/01 02:32:24;;;;;;;13.10;9.27;;;;;;;;;;4995479;28;20469;-71
2023/03/01 02:34:50;;;;;;;11.10;9.93;;;;;;;;;;4994559;28;20613;-69
2023/03/01 02:37:24;;;;;;;12.27;9.60;;;;;;;;;;4994105;28;20909;-71
2023/03/01 02:39:51;;;;;;;14.03;9.57;;;;;;;;;;4995640;28;20468;-71
2023/03/01 02:42:21;;;;;;;14.20;9.63;;;;;;;;;;4994178;28;20523;-70
2023/03/01 02:44:49;;;;;;;13.50;9.03;;;;;;;;;;4995317;28;21029;-71
2023/03/01 02:47:15;;;;;;;11.43;9.70;;;;;;;;;;4995247;28;20455;-70
2023/03/01 02:49:41;;;;;;;12.60;9.83;;;;;;;;;;4995008;28;20416;-70
2023/03/01 02:52:22;;;;;;;10.73;9.50;;;;;;;;;;4993314;28;20204;-70
2023/03/01 02:54:51;;;;;;;14.07;10.13;;;;;;;;;;4993720;28;20533;-72
2023/03/01 02:57:18;;;;;;;11.50;10.17;;;;;;;;;;4993849;28;20428;-70
2023/03/01 02:59:44;;;;;;;16.53;10.00;;;;;;;;;;4995356;28;20922;-69
2023/03/01 03:02:21;;;;;;;13.83;10.67;;;;;;;;;;4995712;28;20522;-70
2023/03/01 03:04:47;;;;;;;12.27;10.13;;;;;;;;;;4993836;28;20457;-71
2023/03/01 03:07:14;;;;;;;13.87;9.77;;;;;;;;;;4994785;28;20847;-70
2023/03/01 03:09:39;;;;;;;14.10;10.13;;;;;;;;;;4995243;28;20875;-70
2023/03/01 03:12:05;;;;;;;13.83;10.70;;;;;;;;;;4995265;28;20435;-69
2023/03/01 03:14:34;;;;;;;17.90;10.30;;;;;;;;;;4997173;28;20243;-71
2023/03/01 03:17:00;;;;;;;14.20;10.73;;;;;;;;;;4995547;28;20279;-70
2023/03/01 03:19:26;;;;;;;13.50;9.90;;;;;;;;;;4995262;28;20858;-69
2023/03/01 03:21:52;;;;;;;16.90;10.47;;;;;;;;;;4993762;28;20208;-70
2023/03/01 03:24:18;;;;;;;18.13;11.37;;;;;;;;;;4994794;28;20183;-69
2023/03/01 03:26:44;;;;;;;20.93;12.03;;;;;;;;;;4995718;28;20180;-70
2023/03/01 03:29:10;;;;;;;16.80;11.07;;;;;;;;;;4994213;28;20199;-69
2023/03/01 03:31:36;;;;;;;18.03;11.57;;;;;;;;;;4995882;28;20173;-70
2023/03/01 03:34:02;;;;;;;23.87;13.63;;;;;;;;;;4995638;28;20181;-71
2023/03/01 03:36:28;;;;;;;23.33;12.13;;;;;;;;;;4995165;28;20611;-70
2023/03/01 03:38:54;;;;;;;25.17;12.50;;;;;;;;;;4995482;28;20450;-69
2023/03/01 03:41:20;;;;;;;20.23;12.47;;;;;;;;;;4994919;28;20647;-69
2023/03/01 03:43:46;;;;;;;18.10;11.20;;;;;;;;;;4994536;28;20230;-69
2023/03/01 03:46:12;;;;;;;18.27;12.53;;;;;;;;;;4995233;28;20914;-70
2023/03/01 03:48:40;;;;;;;17.47;11.97;;;;;;;;;;4995069;28;20212;-70
2023/03/01 03:51:06;;;;;;;15.83;10.93;;;;;;;;;;4993793;28;20431;-70
2023/03/01 03:53:32;;;;;;;16.00;11.87;;;;;;;;;;4993435;28;20477;-69
2023/03/01 03:55:58;;;;;;;16.80;11.03;;;;;;;;;;4993624;28;20604;-69
2023/03/01 03:58:25;;;;;;;14.53;10.80;;;;;;;;;;4994635;28;20509;-70
2023/03/01 04:00:53;;;;;;;14.43;11.00;;;;;;;;;;4995264;28;20184;-70
2023/03/01 04:03:19;;;;;;;16.00;11.30;;;;;;;;;;4994758;28;20446;-69
2023/03/01 04:05:45;;;;;;;13.50;11.17;;;;;;;;;;4994308;28;20425;-70
2023/03/01 04:08:11;;;;;;;14.30;11.67;;;;;;;;;;4993194;28;20902;-72
2023/03/01 04:10:39;;;;;;;12.20;10.73;;;;;;;;;;4994650;28;20409;-70
2023/03/01 04:13:09;;;;;;;13.43;11.53;;;;;;;;;;4994965;28;20884;-69
2023/03/01 04:15:36;;;;;;;13.77;11.27;;;;;;;;;;4994027;28;20408;-70
2023/03/01 04:18:02;;;;;;;17.60;10.90;;;;;;;;;;4993559;28;20434;-71
2023/03/01 04:20:29;;;;;;;15.60;11.40;;;;;;;;;;4994392;28;20414;-69
2023/03/01 04:23:10;;;;;;;14.00;11.23;;;;;;;;;;4992990;28;20476;-69
2023/03/01 04:25:36;;;;;;;16.97;11.27;;;;;;;;;;4997825;28;20392;-68
2023/03/01 04:28:02;;;;;;;15.23;10.83;;;;;;;;;;4998053;28;20517;-71
2023/03/01 04:30:27;;;;;;;13.97;11.13;;;;;;;;;;4996549;28;20188;-71
2023/03/01 04:32:53;;;;;;;15.93;11.77;;;;;;;;;;4997129;28;20220;-71
2023/03/01 04:35:20;;;;;;;14.47;11.00;;;;;;;;;;4997686;28;20176;-70
2023/03/01 04:37:46;;;;;;;17.07;11.23;;;;;;;;;;4997154;28;20185;-69
2023/03/01 04:40:15;;;;;;;12.23;10.67;;;;;;;;;;4997572;28;20420;-69
2023/03/01 04:42:42;;;;;;;14.70;10.67;;;;;;;;;;4996432;28;20213;-69
2023/03/01 04:45:12;;;;;;;15.63;11.03;;;;;;;;;;4997824;28;20447;-70
2023/03/01 04:47:39;;;;;;;13.43;11.37;;;;;;;;;;4998040;28;20475;-70
2023/03/01 04:50:05;;;;;;;14.77;11.23;;;;;;;;;;4997044;28;20427;-71
2023/03/01 04:52:31;;;;;;;15.00;10.83;;;;;;;;;;5004374;28;20964;-70
2023/03/01 04:54:57;;;;;;;15.07;11.80;;;;;;;;;;4999456;28;20433;-70
2023/03/01 04:57:23;;;;;;;12.97;11.50;;;;;;;;;;5017318;28;20187;-70
2023/03/01 04:59:49;;;;;;;14.20;11.50;;;;;;;;;;4999331;28;20271;-70
2023/03/01 05:02:15;;;;;;;14.10;10.60;;;;;;;;;;5017345;28;20200;-70
2023/03/01 05:04:41;;;;;;;16.90;11.33;;;;;;;;;;5018897;28;20192;-70
2023/03/01 05:07:07;;;;;;;15.03;11.00;;;;;;;;;;4999856;28;20272;-69
2023/03/01 05:09:33;;;;;;;14.30;10.23;;;;;;;;;;5017824;28;20179;-69
2023/03/01 05:11:59;;;;;;;13.63;10.73;;;;;;;;;;5016745;28;20199;-71
2023/03/01 05:14:25;;;;;;;15.83;10.73;;;;;;;;;;4999524;28;20176;-70
2023/03/01 05:16:51;;;;;;;13.93;11.27;;;;;;;;;;5017148;28;20716;-69
2023/03/01 05:19:22;;;;;;;14.20;10.87;;;;;;;;;;5016907;28;20677;-70
2023/03/01 05:24:44;;;;;;;15.10;11.07;;;;;;;;;;5008248;28;20456;-70
2023/03/01 05:27:10;;;;;;;14.43;11.10;;;;;;;;;;5016895;28;20485;-69
2023/03/01 05:29:36;;;;;;;14.10;11.03;;;;;;;;;;5019653;28;20175;-69
2023/03/01 05:32:02;;;;;;;12.83;10.17;;;;;;;;;;5023900;28;20196;-69
2023/03/01 05:34:30;;;;;;;13.03;10.07;;;;;;;;;;4999135;28;20267;-70
2023/03/01 05:36:56;;;;;;;13.47;10.50;;;;;;;;;;5015871;28;20476;-70
2023/03/01 05:39:23;;;;;;;14.70;10.67;;;;;;;;;;5016501;28;20425;-70
2023/03/01 05:41:52;;;;;;;14.33;10.50;;;;;;;;;;4998741;28;20507;-70
2023/03/01 05:44:18;;;;;;;14.00;10.40;;;;;;;;;;4999030;28;20415;-70
2023/03/01 05:46:44;;;;;;;12.77;9.83;;;;;;;;;;5016065;28;20513;-69
2023/03/01 05:49:10;;;;;;;16.70;9.97;;;;;;;;;;5000842;28;20180;-69
2023/03/01 05:51:36;;;;;;;14.53;11.13;;;;;;;;;;5003104;28;20407;-69
2023/03/01 05:54:05;;;;;;;15.63;10.67;;;;;;;;;;5001477;28;20433;-69
2023/03/01 05:56:32;;;;;;;12.90;8.90;;;;;;;;;;5019096;28;20201;-70
2023/03/01 05:58:58;;;;;;;12.27;9.67;;;;;;;;;;5019230;28;20415;-70
2023/03/01 06:01:24;;;;;;;17.17;10.00;;;;;;;;;;5019126;28;20414;-69
2023/03/01 06:03:50;;;;;;;14.10;9.87;;;;;;;;;;5021651;28;20261;-69
2023/03/01 06:06:16;;;;;;;16.53;9.90;;;;;;;;;;5021253;28;20186;-68
2023/03/01 06:08:42;;;;;;;15.10;9.73;;;;;;;;;;5020940;28;20199;-69
2023/03/01 06:11:08;;;;;;;20.33;12.23;;;;;;;;;;5000883;28;20216;-68
2023/03/01 06:13:34;;;;;;;17.87;12.33;;;;;;;;;;5015835;28;20195;-69
2023/03/01 06:15:59;;;;;;;22.20;14.33;;;;;;;;;;4997583;28;20197;-70
2023/03/01 06:18:25;;;;;;;21.10;13.30;;;;;;;;;;5015881;28;20617;-70
2023/03/01 06:20:55;;;;;;;32.23;14.90;;;;;;;;;;5015211;28;20655;-68
2023/03/01 06:23:21;;;;;;;37.80;16.73;;;;;;;;;;4997501;28;20700;-69
2023/03/01 06:25:47;;;;;;;23.10;13.63;;;;;;;;;;4997493;28;20422;-70
2023/03/01 06:28:13;;;;;;;23.83;12.47;;;;;;;;;;5015219;28;20464;-69
2023/03/01 06:30:39;;;;;;;20.33;13.00;;;;;;;;;;5015378;28;20254;-70
2023/03/01 06:33:05;;;;;;;19.03;12.87;;;;;;;;;;5015160;28;20291;-69
2023/03/01 06:35:31;;;;;;;18.23;11.03;;;;;;;;;;4997389;28;20184;-70
2023/03/01 06:37:57;;;;;;;19.67;11.73;;;;;;;;;;5014950;28;20182;-69
2023/03/01 06:40:24;;;;;;;19.47;11.90;;;;;;;;;;4997670;28;20277;-69
2023/03/01 06:42:50;;;;;;;10.07;7.03;;;;;;;;;;5015316;28;20941;-69
2023/03/01 06:45:17;;;;;;;18.43;12.17;;;;;;;;;;4998118;28;20428;-69
2023/03/01 06:47:43;;;;;;;29.70;13.07;;;;;;;;;;4997106;28;20461;-69
2023/03/01 06:50:09;;;;;;;29.30;13.37;;;;;;;;;;5015455;28;20417;-68
2023/03/01 06:52:35;;;;;;;23.43;13.20;;;;;;;;;;4997703;28;20215;-69
2023/03/01 06:55:01;;;;;;;18.63;10.93;;;;;;;;;;5016116;28;20456;-68
2023/03/01 06:57:27;;;;;;;18.57;10.70;;;;;;;;;;5016138;28;20180;-67
2023/03/01 06:59:53;;;;;;;17.67;11.03;;;;;;;;;;4999713;28;20426;-68
2023/03/01 07:02:19;;;;;;;11.83;9.40;;;;;;;;;;5033103;28;20494;-68
2023/03/01 07:04:45;;;;;;;13.87;8.27;;;;;;;;;;5033984;28;20453;-68
2023/03/01 07:07:12;;;;;;;14.60;10.03;;;;;;;;;;5032483;28;20224;-68
2023/03/01 07:09:38;;;;;;;18.03;10.50;;;;;;;;;;5021776;28;20417;-68
2023/03/01 07:12:04;;;;;;;16.20;11.43;;;;;;;;;;5030898;23;20498;-70
2023/03/01 07:14:30;;;;;;;14.20;9.67;;;;;;;;;;5016698;28;20247;-71
2023/03/01 07:16:56;;;;;;;13.83;9.53;;;;;;;;;;4999561;28;20469;-71
2023/03/01 07:19:22;;;;;;;18.80;12.03;;;;;;;;;;5018178;28;20692;-71
2023/03/01 07:21:49;;;;;;;15.60;11.17;;;;;;;;;;5017204;28;20473;-71
2023/03/01 07:24:17;;;;;;;17.57;10.87;;;;;;;;;;5016687;28;20449;-71
2023/03/01 07:26:43;;;;;;;16.00;8.87;;;;;;;;;;5016508;28;20488;-71
2023/03/01 07:29:10;;;;;;;21.13;10.50;;;;;;;;;;4998073;28;20520;-71
2023/03/01 07:31:36;;;;;;;16.13;9.30;;;;;;;;;;4998229;28;20208;-71
2023/03/01 07:34:02;;;;;;;21.70;12.20;;;;;;;;;;4997966;28;20449;-71
2023/03/01 07:36:28;;;;;;;22.37;12.20;;;;;;;;;;5015727;28;20419;-71
2023/03/01 07:38:55;;;;;;;19.00;11.73;;;;;;;;;;4997236;28;20464;-71
2023/03/01 07:41:21;;;;;;;15.73;9.80;;;;;;;;;;4997692;28;20214;-73
2023/03/01 07:43:47;;;;;;;12.97;7.37;;;;;;;;;;5016198;28;20797;-73
2023/03/01 07:46:13;;;;;;;13.50;9.77;;;;;;;;;;4998585;28;20418;-71
2023/03/01 07:48:40;;;;;;;19.93;11.43;;;;;;;;;;5017056;28;20465;-72
2023/03/01 07:51:06;;;;;;;21.23;7.37;;;;;;;;;;5016538;28;20806;-72
2023/03/01 07:53:33;;;;;;;12.90;8.03;;;;;;;;;;5013830;28;20437;-72
2023/03/01 07:56:10;;;;;;;18.33;9.77;;;;;;;;;;5014462;28;20448;-73
2023/03/01 07:58:41;;;;;;;13.63;7.00;;;;;;;;;;4996645;28;20415;-73
2023/03/01 08:01:08;;;;;;;10.30;7.17;;;;;;;;;;5000428;28;20830;-72
2023/03/01 08:03:35;;;;;;;16.03;10.80;;;;;;;;;;5018176;28;20430;-72
2023/03/01 08:06:01;;;;;;;16.20;8.83;;;;;;;;;;5018248;28;20436;-72
2023/03/01 08:08:27;;;;;;;12.83;8.93;;;;;;;;;;4999965;28;20468;-72
2023/03/01 08:10:56;;;;;;;15.20;10.47;;;;;;;;;;5017431;28;20436;-72
2023/03/01 08:13:22;;;;;;;12.90;8.97;;;;;;;;;;5017557;28;20496;-72
2023/03/01 08:15:49;;;;;;;15.53;9.80;;;;;;;;;;5017462;28;20915;-72
2023/03/01 08:18:15;;;;;;;11.93;8.10;;;;;;;;;;5017754;28;20203;-73
2023/03/01 08:20:41;;;;;;;16.77;9.60;;;;;;;;;;5017482;28;20407;-72
2023/03/01 08:23:07;;;;;;;16.13;11.07;;;;;;;;;;5017481;28;20444;-72
2023/03/01 08:25:33;;;;;;;18.03;11.20;;;;;;;;;;5017858;28;20211;-73
2023/03/01 08:27:59;;;;;;;11.40;7.60;;;;;;;;;;5017500;28;20278;-72
2023/03/01 08:30:25;;;;;;;15.90;9.70;;;;;;;;;;5017631;28;20551;-73
2023/03/01 08:32:51;;;;;;;10.43;8.67;;;;;;;;;;5017612;28;20517;-72
2023/03/01 08:35:18;;;;;;;8.40;6.63;;;;;;;;;;5017795;28;20410;-72
2023/03/01 08:37:44;;;;;;;12.43;9.20;;;;;;;;;;5017947;28;20415;-71
2023/03/01 08:40:10;;;;;;;16.90;10.73;;;;;;;;;;5017395;28;20457;-70
2023/03/01 08:42:39;;;;;;;18.97;9.20;;;;;;;;;;4999442;28;20212;-72
2023/03/01 08:45:05;;;;;;;15.77;9.77;;;;;;;;;;4999378;28;20956;-72
2023/03/01 08:47:33;;;;;;;13.43;9.57;;;;;;;;;;4999075;28;20494;-72
2023/03/01 08:49:59;;;;;;;12.87;9.23;;;;;;;;;;5017043;28;20497;-72
2023/03/01 08:52:25;;;;;;;13.27;9.53;;;;;;;;;;5016802;28;20470;-73
2023/03/01 08:54:52;;;;;;;15.60;8.97;;;;;;;;;;5016972;28;20700;-72
2023/03/01 08:57:18;;;;;;;12.97;9.90;;;;;;;;;;5016785;28;20422;-71
2023/03/01 08:59:44;;;;;;;16.57;8.77;;;;;;;;;;5016592;28;20786;-72
2023/03/01 09:02:14;;;;;;;16.30;9.60;;;;;;;;;;4999135;28;20431;-72
2023/03/01 09:04:40;;;;;;;15.13;8.50;;;;;;;;;;5017032;28;20403;-71
2023/03/01 09:07:06;;;;;;;13.87;6.80;;;;;;;;;;4999049;28;20450;-71
2023/03/01 09:09:32;;;;;;;14.77;10.60;;;;;;;;;;4998423;28;20434;-72
2023/03/01 09:11:58;;;;;;;12.37;7.17;;;;;;;;;;5016170;28;20258;-73
2023/03/01 09:14:24;;;;;;;11.73;9.07;;;;;;;;;;4999086;28;20411;-71
2023/03/01 09:16:50;;;;;;;14.40;8.17;;;;;;;;;;5016269;28;20176;-74
2023/03/01 09:19:16;;;;;;;13.20;9.50;;;;;;;;;;4998722;28;20180;-71
2023/03/01 09:21:51;;;;;;;12.50;7.27;;;;;;;;;;5016662;28;20408;-72
2023/03/01 09:24:18;;;;;;;12.37;7.53;;;;;;;;;;5016572;28;20391;-72
2023/03/01 09:26:46;;;;;;;9.00;6.73;;;;;;;;;;5016736;28;20426;-71
2023/03/01 09:29:12;;;;;;;9.67;7.23;;;;;;;;;;5016617;28;20438;-73
2023/03/01 09:31:38;;;;;;;11.40;6.87;;;;;;;;;;5016285;28;20417;-72
2023/03/01 09:34:04;;;;;;;10.73;6.83;;;;;;;;;;4998533;28;20498;-72
2023/03/01 09:36:31;;;;;;;13.73;7.43;;;;;;;;;;5016291;28;20642;-72
2023/03/01 09:38:59;;;;;;;7.87;6.57;;;;;;;;;;5016302;28;20415;-72
2023/03/01 09:41:25;;;;;;;12.50;8.57;;;;;;;;;;5016161;28;20407;-72
2023/03/01 09:43:54;;;;;;;7.23;5.50;;;;;;;;;;4998500;28;20522;-72
2023/03/01 09:46:21;;;;;;;8.93;6.77;;;;;;;;;;4998852;28;20422;-71
2023/03/01 09:48:50;;;;;;;12.83;7.37;;;;;;;;;;4998714;28;20451;-72
2023/03/01 09:51:19;;;;;;;14.00;8.93;;;;;;;;;;5015819;28;20771;-72
2023/03/01 09:53:45;;;;;;;12.03;7.80;;;;;;;;;;5016173;28;20573;-72
2023/03/01 09:56:18;;;;;;;16.07;8.87;;;;;;;;;;5015863;28;20406;-72
2023/03/01 09:58:52;;;;;;;12.57;8.20;;;;;;;;;;5016510;28;20211;-72
2023/03/01 10:01:21;;;;;;;9.63;7.80;;;;;;;;;;5016023;28;20642;-73
2023/03/01 10:04:20;;;;;;;14.23;8.23;;;;;;;;;;5016229;28;20442;-72
2023/03/01 10:06:51;;;;;;;10.77;8.63;;;;;;;;;;4972628;28;20514;-72
2023/03/01 10:09:18;;;;;;;10.53;8.07;;;;;;;;;;5016092;28;20394;-72
2023/03/01 10:11:47;;;;;;;9.13;6.33;;;;;;;;;;5015801;28;20653;-72
2023/03/01 10:14:20;;;;;;;12.40;7.90;;;;;;;;;;5015785;28;20399;-71
2023/03/01 10:16:53;;;;;;;7.03;5.20;;;;;;;;;;5016521;28;20399;-71
2023/03/01 10:19:23;;;;;;;11.07;5.83;;;;;;;;;;5015502;28;20226;-71
2023/03/01 10:21:51;;;;;;;8.67;6.73;;;;;;;;;;4997494;28;20203;-71
2023/03/01 10:24:21;;;;;;;9.00;6.67;;;;;;;;;;4998015;28;20195;-71
2023/03/01 10:26:55;;;;;;;9.40;7.10;;;;;;;;;;4997910;28;20188;-71
2023/03/01 10:29:24;;;;;;;11.10;7.73;;;;;;;;;;4997762;28;20179;-72
2023/03/01 10:31:51;;;;;;;14.20;8.77;;;;;;;;;;5015801;28;20200;-71
2023/03/01 10:34:19;;;;;;;8.53;6.30;;;;;;;;;;5015740;28;20184;-72
2023/03/01 10:36:48;;;;;;;11.33;8.40;;;;;;;;;;5015612;28;20187;-71
2023/03/01 10:39:18;;;;;;;11.07;8.27;;;;;;;;;;4997635;28;20680;-71
2023/03/01 10:41:55;;;;;;;9.87;7.33;;;;;;;;;;4998411;28;20187;-71
2023/03/01 10:44:38;;;;;;;10.70;6.47;;;;;;;;;;5015677;28;20190;-72
2023/03/01 10:47:04;;;;;;;9.60;6.90;;;;;;;;;;5017277;28;20188;-70
2023/03/01 10:49:30;;;;;;;9.20;5.97;;;;;;;;;;5017530;28;20182;-71
2023/03/01 10:52:11;;;;;;;11.43;7.53;;;;;;;;;;4999194;28;20195;-71
2023/03/01 10:54:40;;;;;;;10.40;6.43;;;;;;;;;;5015060;28;20171;-71
2023/03/01 10:57:06;;;;;;;7.80;5.53;;;;;;;;;;5016868;28;20176;-72
2023/03/01 10:59:33;;;;;;;9.17;7.27;;;;;;;;;;5014630;28;20176;-72
2023/03/01 11:02:02;;;;;;;10.17;7.83;;;;;;;;;;4996959;28;20214;-71
2023/03/01 11:04:28;;;;;;;8.67;6.63;;;;;;;;;;5015755;28;20180;-71
2023/03/01 11:06:59;;;;;;;11.90;7.00;;;;;;;;;;4997056;28;20226;-70
2023/03/01 11:09:28;;;;;;;11.60;7.03;;;;;;;;;;5014729;28;20182;-71
2023/03/01 11:11:55;;;;;;;9.07;6.40;;;;;;;;;;4996827;28;20200;-71
2023/03/01 11:14:26;;;;;;;6.60;5.27;;;;;;;;;;5014739;28;20635;-71
2023/03/01 11:17:03;;;;;;;6.53;4.63;;;;;;;;;;4997873;28;20180;-71
2023/03/01 11:19:29;;;;;;;10.30;7.00;;;;;;;;;;5015301;28;20168;-71
2023/03/01 11:21:57;;;;;;;9.53;7.30;;;;;;;;;;4997401;28;20235;-71
2023/03/01 11:24:43;;;;;;;15.47;7.63;;;;;;;;;;5014751;28;20183;-71
2023/03/01 11:27:16;;;;;;;12.93;7.90;;;;;;;;;;4996773;28;20309;-71
2023/03/01 11:29:46;;;;;;;8.07;5.47;;;;;;;;;;5014827;28;20568;-71
2023/03/01 11:32:13;;;;;;;7.50;5.50;;;;;;;;;;4996789;28;20290;-71
2023/03/01 11:34:43;;;;;;;10.97;6.70;;;;;;;;;;5020276;28;20208;-72
2023/03/01 11:37:24;;;;;;;8.53;6.47;;;;;;;;;;5019352;28;20192;-71
2023/03/01 11:39:59;;;;;;;8.90;6.53;;;;;;;;;;5019913;28;20186;-71
2023/03/01 11:42:33;;;;;;;8.07;5.90;;;;;;;;;;5002791;28;20203;-71
2023/03/01 11:45:02;;;;;;;13.20;6.73;;;;;;;;;;5020898;28;20170;-71
2023/03/01 11:47:28;;;;;;;8.23;6.07;;;;;;;;;;5009860;28;20199;-72
2023/03/01 11:49:57;;;;;;;9.87;6.43;;;;;;;;;;5033270;28;20203;-70
2023/03/01 11:52:32;;;;;;;8.73;5.70;;;;;;;;;;5033364;28;20198;-70
2023/03/01 11:55:17;;;;;;;7.67;4.80;;;;;;;;;;5014326;28;20183;-71
2023/03/01 11:57:49;;;;;;;10.20;5.87;;;;;;;;;;5003160;28;20182;-70
2023/03/01 12:00:18;;;;;;;9.23;6.23;;;;;;;;;;5019002;28;20180;-71
2023/03/01 12:02:47;;;;;;;19.73;6.37;;;;;;;;;;5019243;28;20196;-70
2023/03/01 12:05:36;;;;;;;9.27;5.40;;;;;;;;;;5018887;28;20685;-70
2023/03/01 12:08:01;;;;;;;7.07;4.90;;;;;;;;;;5001178;28;20200;-70
2023/03/01 12:10:28;;;;;;;7.60;5.80;;;;;;;;;;5001543;28;20646;-70
2023/03/01 12:12:59;;;;;;;10.27;5.80;;;;;;;;;;5018773;28;20247;-70
2023/03/01 12:15:38;;;;;;;7.93;5.10;;;;;;;;;;5001186;28;20203;-71
2023/03/01 12:18:11;;;;;;;10.60;6.37;;;;;;;;;;5018302;28;20156;-71
2023/03/01 12:20:59;;;;;;;10.67;6.57;;;;;;;;;;5018571;28;20634;-71
2023/03/01 12:23:40;;;;;;;10.93;7.70;;;;;;;;;;5000695;28;20282;-70
2023/03/01 12:26:19;;;;;;;9.67;7.07;;;;;;;;;;5018533;28;20660;-70
2023/03/01 12:29:03;;;;;;;10.80;6.60;;;;;;;;;;5000168;28;20254;-70
2023/03/01 12:31:32;;;;;;;8.23;5.57;;;;;;;;;;5000490;28;20218;-70
2023/03/01 12:34:01;;;;;;;8.33;6.13;;;;;;;;;;5017784;28;20188;-71
2023/03/01 12:36:44;;;;;;;7.60;5.57;;;;;;;;;;5000285;28;20188;-72
2023/03/01 12:39:30;;;;;;;6.90;5.83;;;;;;;;;;5017931;28;20172;-70
2023/03/01 12:41:59;;;;;;;10.13;6.67;;;;;;;;;;5000029;28;20230;-70
2023/03/01 12:44:33;;;;;;;6.37;5.07;;;;;;;;;;5017023;28;20176;-70
2023/03/01 12:47:14;;;;;;;10.40;6.30;;;;;;;;;;5017915;28;20175;-70
2023/03/01 12:49:56;;;;;;;6.97;5.50;;;;;;;;;;5017689;28;20250;-69
2023/03/01 12:52:25;;;;;;;11.13;6.57;;;;;;;;;;4999833;28;20207;-70
2023/03/01 12:54:53;;;;;;;7.67;6.20;;;;;;;;;;5000472;28;20191;-69
2023/03/01 12:57:36;;;;;;;11.40;6.67;;;;;;;;;;5017708;28;20234;-70
2023/03/01 13:00:08;;;;;;;14.30;6.70;;;;;;;;;;5018235;28;20160;-70
2023/03/01 13:02:38;;;;;;;8.57;6.80;;;;;;;;;;5017810;28;20736;-70
2023/03/01 13:05:06;;;;;;;10.13;7.37;;;;;;;;;;5016485;28;20183;-70
2023/03/01 13:07:51;;;;;;;6.03;5.13;;;;;;;;;;4998818;28;20204;-69
2023/03/01 13:10:23;;;;;;;7.37;5.77;;;;;;;;;;5016420;28;20200;-70
2023/03/01 13:12:49;;;;;;;10.43;7.37;;;;;;;;;;5016338;28;20219;-70
2023/03/01 13:15:35;;;;;;;13.43;6.03;;;;;;;;;;5016530;28;20180;-70
2023/03/01 13:18:01;;;;;;;7.67;6.60;;;;;;;;;;5017311;28;20192;-70
2023/03/01 13:20:30;;;;;;;9.80;6.67;;;;;;;;;;5016408;28;20242;-70
2023/03/01 13:23:07;;;;;;;9.17;6.37;;;;;;;;;;4998403;28;20682;-70
2023/03/01 13:25:33;;;;;;;10.13;7.10;;;;;;;;;;5016254;28;20188;-70
2023/03/01 13:28:18;;;;;;;8.77;7.60;;;;;;;;;;5015950;28;20283;-69
2023/03/01 13:30:44;;;;;;;6.20;4.43;;;;;;;;;;4998772;28;20179;-71
2023/03/01 13:33:30;;;;;;;8.10;5.63;;;;;;;;;;4998449;28;20204;-70
2023/03/01 13:35:57;;;;;;;7.77;5.57;;;;;;;;;;5016202;28;20258;-71
2023/03/01 13:38:41;;;;;;;7.83;4.53;;;;;;;;;;4999083;28;20266;-69
2023/03/01 13:41:08;;;;;;;8.03;5.30;;;;;;;;;;5015845;28;20582;-71
2023/03/01 13:43:39;;;;;;;8.93;6.20;;;;;;;;;;5016073;28;20625;-70
2023/03/01 13:46:13;;;;;;;9.70;6.67;;;;;;;;;;5015836;28;20187;-70
2023/03/01 13:48:40;;;;;;;6.37;4.27;;;;;;;;;;5015905;28;20223;-70
2023/03/01 13:51:08;;;;;;;9.07;5.90;;;;;;;;;;4998865;28;20180;-71
2023/03/01 13:53:39;;;;;;;9.40;6.43;;;;;;;;;;5015982;28;20195;-70
2023/03/01 13:56:11;;;;;;;8.53;5.37;;;;;;;;;;4997394;28;20191;-70
2023/03/01 13:58:51;;;;;;;9.50;7.47;;;;;;;;;;5015208;28;20643;-70
2023/03/01 14:01:25;;;;;;;8.67;6.83;;;;;;;;;;5015594;28;20669;-71
2023/03/01 14:03:51;;;;;;;9.77;6.30;;;;;;;;;;5015958;28;20226;-71
2023/03/01 14:06:20;;;;;;;7.87;4.60;;;;;;;;;;4997940;28;20330;-71
2023/03/01 14:08:47;;;;;;;8.80;6.77;;;;;;;;;;5016012;28;20214;-70
2023/03/01 14:11:13;;;;;;;9.40;6.70;;;;;;;;;;5016512;28;20548;-70
2023/03/01 14:13:58;;;;;;;9.13;7.73;;;;;;;;;;5015892;28;20218;-70
2023/03/01 14:16:24;;;;;;;10.10;5.73;;;;;;;;;;4998053;28;20238;-70
2023/03/01 14:19:09;;;;;;;10.30;7.03;;;;;;;;;;5015288;28;20180;-71
2023/03/01 14:21:36;;;;;;;11.23;6.87;;;;;;;;;;5015258;28;20179;-70
2023/03/01 14:24:02;;;;;;;9.73;6.40;;;;;;;;;;4997594;28;20191;-70
2023/03/01 14:26:28;;;;;;;7.87;6.30;;;;;;;;;;5015293;28;20183;-70
2023/03/01 14:28:55;;;;;;;10.20;6.53;;;;;;;;;;5015114;28;20199;-72
2023/03/01 14:31:30;;;;;;;8.63;6.23;;;;;;;;;;4997948;28;20175;-71
2023/03/01 14:33:56;;;;;;;10.00;7.60;;;;;;;;;;5016333;28;20180;-71
2023/03/01 14:36:27;;;;;;;6.40;5.07;;;;;;;;;;5016321;28;20238;-70
2023/03/01 14:38:54;;;;;;;13.60;6.80;;;;;;;;;;5015752;28;20536;-70
2023/03/01 14:41:21;;;;;;;8.97;6.43;;;;;;;;;;4997835;28;20215;-70